createdAt,value
2023-05-16T00:02:00.415Z,100.00
2023-05-16T00:04:27.547Z,100.00
2023-05-16T00:06:55.169Z,100.00
2023-05-16T00:09:21.896Z,100.00
2023-05-16T00:11:48.730Z,100.00
2023-05-16T00:14:15.454Z,100.00
2023-05-16T00:16:42.355Z,100.00
2023-05-16T00:19:10.412Z,100.00
2023-05-16T00:21:37.363Z,100.00
2023-05-16T00:24:04.864Z,100.00
2023-05-16T00:26:31.483Z,100.00
2023-05-16T00:28:58.162Z,100.00
2023-05-16T00:31:25.194Z,100.00
2023-05-16T00:33:51.986Z,100.00
2023-05-16T00:36:18.801Z,100.00
2023-05-16T00:38:45.811Z,100.00
2023-05-16T00:41:12.508Z,100.00
2023-05-16T00:43:39.955Z,100.00
2023-05-16T00:46:06.636Z,100.00
2023-05-16T00:48:34.005Z,100.00
2023-05-16T00:51:02.003Z,100.00
2023-05-16T00:53:28.873Z,100.00
2023-05-16T00:55:57.239Z,100.00
2023-05-16T00:58:27.169Z,100.00
2023-05-16T01:00:53.975Z,100.00
2023-05-16T01:03:21.140Z,100.00
2023-05-16T01:05:49.994Z,100.00
2023-05-16T01:08:16.683Z,100.00
2023-05-16T01:11:21.628Z,100.00
2023-05-16T01:13:51.172Z,100.00
2023-05-16T01:16:34.522Z,100.00
2023-05-16T01:19:23.234Z,100.00
2023-05-16T01:21:58.214Z,100.00
2023-05-16T01:24:43.562Z,100.00
2023-05-16T01:27:12.106Z,100.00
2023-05-16T01:29:38.753Z,100.00
2023-05-16T01:32:05.808Z,100.00
2023-05-16T01:34:33.906Z,100.00
2023-05-16T01:37:19.864Z,100.00
2023-05-16T01:39:55.715Z,100.00
2023-05-16T01:42:26.810Z,100.00
2023-05-16T01:45:06.447Z,100.00
2023-05-16T01:47:35.812Z,100.00
2023-05-16T01:50:15.905Z,100.00
2023-05-16T01:52:53.409Z,100.00
2023-05-16T01:55:47.387Z,100.00
2023-05-16T01:58:15.700Z,100.00
2023-05-16T02:00:42.880Z,100.00
2023-05-16T02:03:09.860Z,100.00
2023-05-16T02:05:36.664Z,100.00
2023-05-16T02:08:04.031Z,100.00
2023-05-16T02:10:31.604Z,100.00
2023-05-16T02:12:58.231Z,100.00
2023-05-16T02:15:27.692Z,100.00
2023-05-16T02:17:54.844Z,100.00
2023-05-16T02:20:21.542Z,100.00
2023-05-16T02:22:50.170Z,100.00
2023-05-16T02:25:16.882Z,100.00
2023-05-16T02:27:43.668Z,100.00
2023-05-16T02:30:13.635Z,100.00
2023-05-16T02:32:41.212Z,100.00
2023-05-16T02:35:08.417Z,100.00
2023-05-16T02:37:35.300Z,100.00
2023-05-16T02:40:09.165Z,100.00
2023-05-16T02:42:36.044Z,100.00
2023-05-16T02:45:06.011Z,100.00
2023-05-16T02:47:35.650Z,100.00
2023-05-16T02:50:03.759Z,100.00
2023-05-16T02:52:30.450Z,100.00
2023-05-16T02:55:16.091Z,100.00
2023-05-16T02:57:43.916Z,100.00
2023-05-16T03:00:11.596Z,100.00
2023-05-16T03:02:38.263Z,100.00
2023-05-16T03:05:06.394Z,100.00
2023-05-16T03:07:35.705Z,100.00
2023-05-16T03:10:04.593Z,100.00
2023-05-16T03:12:31.379Z,100.00
2023-05-16T03:14:57.955Z,100.00
2023-05-16T03:17:24.813Z,100.00
2023-05-16T03:19:51.466Z,100.00
2023-05-16T03:22:18.094Z,100.00
2023-05-16T03:24:45.084Z,100.00
2023-05-16T03:27:12.149Z,100.00
2023-05-16T03:29:38.751Z,100.00
2023-05-16T03:32:09.852Z,100.00
2023-05-16T03:34:36.777Z,100.00
2023-05-16T03:37:03.623Z,100.00
2023-05-16T03:39:30.271Z,100.00
2023-05-16T03:41:57.442Z,100.00
2023-05-16T03:44:24.315Z,100.00
2023-05-16T03:46:51.600Z,100.00
2023-05-16T03:49:18.551Z,100.00
2023-05-16T03:51:45.430Z,100.00
2023-05-16T03:54:12.020Z,100.00
2023-05-16T03:56:38.591Z,100.00
2023-05-16T03:59:07.303Z,100.00
2023-05-16T04:01:33.967Z,100.00
2023-05-16T04:04:00.592Z,100.00
2023-05-16T04:06:27.194Z,100.00
2023-05-16T04:08:53.822Z,100.00
2023-05-16T04:11:21.494Z,100.00
2023-05-16T04:13:48.252Z,100.00
2023-05-16T04:16:14.862Z,100.00
2023-05-16T04:18:41.541Z,100.00
2023-05-16T04:21:15.170Z,100.00
2023-05-16T04:23:42.015Z,100.00
2023-05-16T04:26:08.736Z,100.00
2023-05-16T04:28:36.081Z,100.00
2023-05-16T04:31:03.281Z,100.00
2023-05-16T04:33:30.163Z,100.00
2023-05-16T04:35:58.627Z,100.00
2023-05-16T04:38:25.876Z,100.00
2023-05-16T04:40:53.062Z,100.00
2023-05-16T04:43:20.183Z,100.00
2023-05-16T04:45:47.299Z,100.00
2023-05-16T04:48:14.045Z,100.00
2023-05-16T04:50:41.137Z,100.00
2023-05-16T04:53:10.570Z,100.00
2023-05-16T04:55:37.294Z,100.00
2023-05-16T04:58:04.141Z,100.00
2023-05-16T05:00:30.795Z,100.00
2023-05-16T05:02:57.619Z,100.00
2023-05-16T05:05:24.385Z,100.00
2023-05-16T05:07:51.580Z,100.00
2023-05-16T05:10:18.668Z,100.00
2023-05-16T05:12:45.392Z,100.00
2023-05-16T05:15:12.327Z,100.00
2023-05-16T05:17:39.331Z,100.00
2023-05-16T05:20:13.814Z,100.00
2023-05-16T05:22:40.900Z,100.00
2023-05-16T05:27:48.893Z,100.00
2023-05-16T05:30:16.337Z,100.00
2023-05-16T05:32:43.018Z,100.00
2023-05-16T05:35:09.666Z,100.00
2023-05-16T05:37:36.306Z,100.00
2023-05-16T05:40:03.388Z,100.00
2023-05-16T05:42:30.041Z,100.00
2023-05-16T05:44:56.733Z,100.00
2023-05-16T05:47:23.470Z,100.00
2023-05-16T05:49:50.755Z,100.00
2023-05-16T05:52:17.614Z,100.00
2023-05-16T05:54:44.346Z,100.00
2023-05-16T05:57:14.141Z,100.00
2023-05-16T05:59:40.850Z,100.00
2023-05-16T06:02:08.492Z,100.00
2023-05-16T06:04:35.247Z,100.00
2023-05-16T06:07:05.035Z,100.00
2023-05-16T06:09:32.104Z,100.00
2023-05-16T06:11:58.924Z,100.00
2023-05-16T06:24:17.260Z,100.00
2023-05-16T06:35:07.654Z,100.00
2023-05-16T06:37:34.895Z,100.00
2023-05-16T06:40:01.666Z,100.00
2023-05-16T06:42:28.415Z,100.00
2023-05-16T06:44:57.885Z,100.00
2023-05-16T06:47:25.297Z,100.00
2023-05-16T06:49:56.106Z,100.00
2023-05-16T06:52:23.135Z,100.00
2023-05-16T06:55:13.013Z,100.00
2023-05-16T06:57:45.073Z,100.00
2023-05-16T07:00:21.306Z,100.00
2023-05-16T07:02:48.058Z,100.00
2023-05-16T07:05:14.891Z,100.00
2023-05-16T07:07:41.790Z,100.00
2023-05-16T07:10:08.874Z,100.00
2023-05-16T07:12:39.781Z,100.00
2023-05-16T07:15:07.072Z,100.00
2023-05-16T07:17:33.924Z,100.00
2023-05-16T07:20:02.255Z,100.00
2023-05-16T07:22:31.215Z,100.00
2023-05-16T07:25:01.211Z,100.00
2023-05-16T07:27:28.651Z,100.00
2023-05-16T07:29:55.577Z,100.00
2023-05-16T07:32:22.360Z,100.00
2023-05-16T07:34:49.249Z,100.00
2023-05-16T07:37:16.527Z,100.00
2023-05-16T07:39:43.712Z,100.00
2023-05-16T07:42:13.180Z,100.00
2023-05-16T07:44:40.190Z,100.00
2023-05-16T07:47:08.758Z,100.00
2023-05-16T07:49:36.565Z,100.00
2023-05-16T07:52:03.626Z,100.00
2023-05-16T07:54:35.346Z,100.00
2023-05-16T07:57:02.567Z,100.00
2023-05-16T07:59:29.532Z,100.00
2023-05-16T08:01:56.775Z,100.00
2023-05-16T08:04:23.562Z,100.00
2023-05-16T08:06:50.319Z,100.00
2023-05-16T08:09:17.054Z,100.00
2023-05-16T08:11:45.878Z,100.00
2023-05-16T08:14:15.965Z,100.00
2023-05-16T08:16:44.716Z,100.00
2023-05-16T08:19:14.784Z,100.00
2023-05-16T08:21:44.037Z,100.00
2023-05-16T08:24:11.804Z,100.00
2023-05-16T08:26:38.773Z,100.00
2023-05-16T08:29:05.544Z,100.00
2023-05-16T08:31:34.739Z,100.00
2023-05-16T08:34:04.897Z,100.00
2023-05-16T08:36:31.804Z,100.00
2023-05-16T08:38:58.465Z,100.00
2023-05-16T08:41:26.069Z,100.00
2023-05-16T08:43:53.139Z,100.00
2023-05-16T08:46:23.142Z,100.00
2023-05-16T08:48:53.119Z,100.00
2023-05-16T08:51:25.300Z,100.00
2023-05-16T08:54:01.532Z,100.00
2023-05-16T08:56:28.513Z,100.00
2023-05-16T08:58:56.408Z,100.00
2023-05-16T09:01:23.515Z,100.00
2023-05-16T09:03:51.305Z,100.00
2023-05-16T09:06:18.134Z,100.00
2023-05-16T09:08:48.520Z,100.00
2023-05-16T09:11:15.259Z,100.00
2023-05-16T09:13:44.946Z,100.00
2023-05-16T09:16:19.936Z,100.00
2023-05-16T09:18:57.983Z,100.00
2023-05-16T09:21:32.980Z,100.00
2023-05-16T09:24:05.975Z,100.00
2023-05-16T09:26:38.611Z,100.00
2023-05-16T09:29:17.463Z,100.00
2023-05-16T09:31:44.264Z,100.00
2023-05-16T09:34:12.945Z,100.00
2023-05-16T09:36:42.154Z,100.00
2023-05-16T09:39:17.964Z,100.00
2023-05-16T09:41:44.978Z,100.00
2023-05-16T09:44:14.897Z,100.00
2023-05-16T09:46:45.094Z,100.00
2023-05-16T10:52:18.462Z,100.00
2023-05-16T10:54:52.817Z,100.00
2023-05-16T10:57:22.971Z,100.00
2023-05-16T10:59:53.614Z,100.00
2023-05-16T11:02:39.100Z,100.00
2023-05-16T11:05:08.727Z,100.00
2023-05-16T11:07:44.066Z,100.00
2023-05-16T11:10:16.117Z,100.00
2023-05-16T11:39:36.393Z,100.00
2023-05-16T11:56:05.825Z,100.00
2023-05-16T11:58:33.312Z,100.00
2023-05-16T12:01:03.490Z,100.00
2023-05-16T12:03:39.424Z,100.00
2023-05-16T12:15:01.175Z,100.00
2023-05-16T12:26:08.827Z,100.00
2023-05-16T12:28:54.320Z,100.00
2023-05-16T12:31:31.047Z,99.70
2023-05-16T12:33:59.771Z,99.20
2023-05-16T12:36:26.694Z,100.00
2023-05-16T12:38:53.784Z,97.48
2023-05-16T12:41:23.780Z,96.55
2023-05-16T12:43:50.612Z,94.93
2023-05-16T12:46:19.881Z,95.57
2023-05-16T12:48:48.137Z,94.89
2023-05-16T12:51:17.369Z,95.36
2023-05-16T12:54:01.412Z,93.85
2023-05-16T12:56:36.171Z,95.26
2023-05-16T12:59:03.607Z,94.58
2023-05-16T13:01:30.710Z,92.03
2023-05-16T13:03:57.870Z,91.56
2023-05-16T13:06:24.743Z,91.24
2023-05-16T13:08:53.633Z,88.87
2023-05-16T13:11:21.021Z,89.80
2023-05-16T13:13:47.944Z,88.37
2023-05-16T13:16:15.582Z,90.38
2023-05-16T13:18:44.891Z,89.37
2023-05-16T13:21:14.288Z,88.81
2023-05-16T13:23:41.034Z,88.53
2023-05-16T13:26:10.575Z,87.73
2023-05-16T13:28:37.642Z,87.94
2023-05-16T13:31:04.802Z,83.89
2023-05-16T13:33:33.788Z,88.14
2023-05-16T13:36:00.541Z,89.49
2023-05-16T13:38:27.279Z,86.29
2023-05-16T13:40:56.212Z,85.21
2023-05-16T13:43:22.885Z,81.28
2023-05-16T13:45:50.070Z,79.51
2023-05-16T13:48:17.243Z,81.47
2023-05-16T13:50:44.761Z,79.67
2023-05-16T13:53:14.400Z,79.68
2023-05-16T13:55:41.181Z,77.34
2023-05-16T13:58:07.897Z,78.23
2023-05-16T14:00:44.340Z,80.56
2023-05-16T14:03:12.444Z,75.30
2023-05-16T14:05:39.523Z,75.67
2023-05-16T14:08:06.817Z,74.54
2023-05-16T14:10:34.123Z,74.83
2023-05-16T14:13:00.774Z,73.35
2023-05-16T14:15:28.187Z,67.53
2023-05-16T14:17:55.273Z,65.49
2023-05-16T14:20:25.681Z,62.81
2023-05-16T14:30:49.240Z,60.18
2023-05-16T14:33:19.233Z,59.50
2023-05-16T14:35:46.453Z,61.63
2023-05-16T14:38:14.627Z,61.68
2023-05-16T14:40:41.272Z,53.12
2023-05-16T14:43:08.983Z,51.29
2023-05-16T14:45:35.859Z,54.10
2023-05-16T14:48:37.830Z,53.31
2023-05-16T14:51:05.343Z,52.85
2023-05-16T14:53:32.128Z,54.77
2023-05-16T14:55:59.706Z,57.24
2023-05-16T14:58:27.332Z,56.16
2023-05-16T15:00:54.771Z,54.61
2023-05-16T15:03:21.491Z,54.25
2023-05-16T15:05:48.465Z,50.28
2023-05-16T15:08:28.388Z,49.16
2023-05-16T15:10:55.798Z,49.39
2023-05-16T15:13:27.556Z,51.47
2023-05-16T15:15:54.414Z,52.74
2023-05-16T15:18:24.370Z,54.21
2023-05-16T15:20:53.477Z,51.56
2023-05-16T15:23:20.338Z,52.91
2023-05-16T15:25:47.165Z,52.16
2023-05-16T15:28:13.985Z,50.12
2023-05-16T15:30:40.994Z,50.45
2023-05-16T15:33:07.811Z,52.35
2023-05-16T15:35:34.640Z,53.91
2023-05-16T15:38:01.715Z,51.76
2023-05-16T15:40:28.958Z,51.57
2023-05-16T15:42:56.256Z,52.01
2023-05-16T15:48:04.370Z,52.99
2023-05-16T15:50:31.258Z,52.97
2023-05-16T15:52:58.409Z,54.77
2023-05-16T15:55:25.579Z,56.93
2023-05-16T15:57:57.408Z,52.64
2023-05-16T16:00:25.080Z,50.98
2023-05-16T16:02:52.207Z,50.92
2023-05-16T16:05:19.718Z,49.16
2023-05-16T16:07:49.592Z,47.99
2023-05-16T16:10:19.456Z,49.90
2023-05-16T16:13:02.030Z,49.31
2023-05-16T16:15:32.046Z,50.49
2023-05-16T16:18:00.963Z,52.92
2023-05-16T16:20:28.297Z,49.97
2023-05-16T16:22:54.996Z,50.20
2023-05-16T16:25:21.758Z,50.15
2023-05-16T16:27:48.679Z,52.73
2023-05-16T16:30:18.573Z,53.23
2023-05-16T16:32:47.531Z,56.55
2023-05-16T16:35:14.928Z,54.13
2023-05-16T16:53:36.481Z,51.35
2023-05-16T16:56:06.979Z,52.51
2023-05-16T16:58:34.909Z,53.03
2023-05-16T17:01:01.956Z,54.72
2023-05-16T17:03:28.790Z,55.51
2023-05-16T17:05:55.524Z,54.07
2023-05-16T17:08:28.931Z,51.54
2023-05-16T17:10:55.764Z,52.39
2023-05-16T17:13:22.592Z,51.70
2023-05-16T17:15:49.335Z,51.81
2023-05-16T17:18:18.229Z,51.32
2023-05-16T17:20:44.917Z,52.91
2023-05-16T17:23:11.576Z,51.45
2023-05-16T17:25:41.488Z,51.24
2023-05-16T17:28:08.260Z,50.38
2023-05-16T17:30:41.456Z,50.66
2023-05-16T17:33:14.143Z,51.10
2023-05-16T17:35:42.145Z,52.64
2023-05-16T17:38:12.957Z,52.09
2023-05-16T17:40:41.976Z,53.12
2023-05-16T17:43:10.088Z,52.75
2023-05-16T17:45:41.380Z,54.55
2023-05-16T17:51:05.623Z,54.41
2023-05-16T17:56:34.223Z,54.63
2023-05-16T17:59:04.058Z,55.80
2023-05-16T18:04:32.533Z,54.73
2023-05-16T19:43:27.457Z,61.88
2023-05-16T19:46:06.399Z,62.00
2023-05-16T19:48:33.169Z,62.44
2023-05-16T19:51:00.044Z,61.18
2023-05-16T19:53:26.785Z,61.64
2023-05-16T19:55:53.566Z,62.37
2023-05-16T19:58:20.362Z,62.03
2023-05-16T20:00:47.262Z,62.76
2023-05-16T20:03:14.172Z,63.31
2023-05-16T20:05:43.824Z,63.42
2023-05-16T20:08:12.293Z,63.55
2023-05-16T20:10:39.997Z,64.20
2023-05-16T20:13:06.630Z,63.95
2023-05-16T20:15:33.497Z,64.01
2023-05-16T20:18:00.840Z,64.57
2023-05-16T20:20:45.834Z,65.40
2023-05-16T20:23:29.905Z,65.45
2023-05-16T20:25:56.863Z,64.38
2023-05-16T20:28:23.817Z,65.14
2023-05-16T20:30:51.433Z,65.41
2023-05-16T20:33:20.107Z,65.19
2023-05-16T20:35:51.084Z,66.51
2023-05-16T20:38:17.868Z,66.91
2023-05-16T20:40:49.900Z,66.26
2023-05-16T20:43:17.184Z,67.42
2023-05-16T20:45:44.979Z,67.30
2023-05-16T20:48:12.644Z,67.87
2023-05-16T20:50:39.930Z,68.57
2023-05-16T20:53:07.136Z,68.06
2023-05-16T20:55:42.061Z,68.75
2023-05-16T20:58:10.635Z,69.22
2023-05-16T21:00:37.995Z,69.85
2023-05-16T21:03:08.310Z,70.37
2023-05-16T21:05:36.653Z,70.58
2023-05-16T21:08:03.539Z,70.53
2023-05-16T21:13:12.553Z,70.32
2023-05-16T21:15:40.039Z,70.04
2023-05-16T21:18:08.303Z,70.66
2023-05-16T21:20:35.549Z,70.29
2023-05-16T21:23:03.832Z,70.18
2023-05-16T21:25:43.708Z,70.58
2023-05-16T21:28:11.183Z,70.65
2023-05-16T21:30:38.293Z,70.39
2023-05-16T21:33:06.935Z,70.33
2023-05-16T21:35:50.377Z,71.05
2023-05-16T21:38:17.561Z,70.37
2023-05-16T21:41:06.534Z,70.71
2023-05-16T21:43:34.298Z,71.32
2023-05-16T21:46:05.719Z,71.42
2023-05-16T21:48:34.398Z,73.19
2023-05-16T21:51:03.299Z,73.08
2023-05-16T21:53:35.137Z,72.23
2023-05-16T21:56:02.752Z,72.59
2023-05-16T21:58:29.597Z,72.45
2023-05-16T22:00:58.741Z,73.11
2023-05-16T22:03:25.986Z,73.28
2023-05-16T22:05:54.993Z,73.87
2023-05-16T22:08:22.852Z,73.68
2023-05-16T22:10:52.720Z,73.45
2023-05-16T22:13:37.611Z,73.33
2023-05-16T22:16:07.993Z,73.17
2023-05-16T22:18:35.685Z,73.10
2023-05-16T22:21:02.621Z,73.60
2023-05-16T22:23:29.253Z,73.73
2023-05-16T22:25:56.091Z,73.33
2023-05-16T22:28:26.288Z,73.17
2023-05-16T22:30:56.134Z,74.74
2023-05-16T22:33:26.267Z,73.13
2023-05-16T22:35:56.321Z,73.93
2023-05-16T22:38:24.204Z,73.60
2023-05-16T22:40:51.293Z,73.46
2023-05-16T22:43:20.155Z,74.13
2023-05-16T22:45:46.909Z,75.33
2023-05-16T22:48:13.694Z,74.90
2023-05-16T22:50:40.557Z,74.90
2023-05-16T22:53:07.129Z,74.47
2023-05-16T22:55:35.019Z,75.28
2023-05-16T22:58:01.761Z,75.45
2023-05-16T23:00:28.443Z,76.39
2023-05-16T23:02:55.248Z,77.79
2023-05-16T23:05:22.011Z,77.43
2023-05-16T23:07:48.692Z,77.22
2023-05-16T23:10:15.469Z,77.11
2023-05-16T23:12:42.155Z,78.60
2023-05-16T23:15:10.400Z,79.95
2023-05-16T23:17:38.548Z,80.63
2023-05-16T23:20:07.029Z,80.98
2023-05-16T23:22:33.972Z,80.68
2023-05-16T23:25:00.715Z,81.50
2023-05-16T23:27:27.428Z,81.31
2023-05-16T23:29:56.095Z,81.74
2023-05-16T23:32:22.815Z,83.17
2023-05-16T23:34:49.689Z,82.94
2023-05-16T23:37:16.598Z,83.27
2023-05-16T23:39:43.235Z,83.97
2023-05-16T23:42:09.809Z,83.80
2023-05-16T23:44:36.543Z,83.45
2023-05-16T23:47:03.412Z,83.49
2023-05-16T23:49:30.103Z,83.58
2023-05-16T23:51:59.903Z,84.69
2023-05-16T23:54:29.741Z,85.83
2023-05-16T23:56:57.017Z,85.84
2023-05-16T23:59:23.668Z,86.70
